createdAt,value
2019-03-31T00:00:43.439Z,27.0878
2019-03-31T00:02:47.422Z,27.1611
2019-03-31T00:04:51.430Z,27.0588
2019-03-31T00:06:55.418Z,27.1473
2019-03-31T00:08:59.413Z,27.1290
2019-03-31T00:11:03.403Z,27.1015
2019-03-31T00:13:07.422Z,27.1183
2019-03-31T00:15:11.432Z,27.0100
2019-03-31T00:17:15.413Z,26.9780
2019-03-31T00:19:19.423Z,26.9505
2019-03-31T00:21:23.410Z,26.9825
2019-03-31T00:23:27.408Z,26.9047
2019-03-31T00:25:31.408Z,27.0359
2019-03-31T00:27:35.415Z,27.0359
2019-03-31T00:29:39.414Z,27.0375
2019-03-31T00:31:43.414Z,26.9917
2019-03-31T00:33:47.414Z,27.0329
2019-03-31T00:35:51.437Z,27.0497
2019-03-31T00:37:55.414Z,27.0054
2019-03-31T00:39:59.449Z,26.9734
2019-03-31T00:42:03.417Z,26.9734
2019-03-31T00:44:07.427Z,27.0466
2019-03-31T00:46:11.409Z,27.0008
2019-03-31T00:48:15.426Z,27.0146
2019-03-31T00:50:19.403Z,27.0146
2019-03-31T00:52:23.400Z,26.9688
2019-03-31T00:54:27.870Z,26.9581
2019-03-31T00:56:31.410Z,26.9093
2019-03-31T00:58:35.413Z,26.9078
2019-03-31T01:00:39.404Z,26.9368
2019-03-31T01:02:43.397Z,27.0726
2019-03-31T01:04:47.418Z,26.9581
2019-03-31T01:06:51.398Z,27.0741
2019-03-31T01:08:55.411Z,27.0451
2019-03-31T01:10:59.428Z,27.0085
2019-03-31T01:13:03.431Z,26.9963
2019-03-31T01:15:07.412Z,27.0542
2019-03-31T01:17:11.408Z,26.9368
2019-03-31T01:19:15.416Z,27.0970
2019-03-31T01:21:19.415Z,27.0680
2019-03-31T01:23:23.412Z,27.1321
2019-03-31T01:25:27.425Z,27.0466
2019-03-31T01:27:31.413Z,27.0954
2019-03-31T01:29:35.425Z,26.9780
2019-03-31T01:31:49.610Z,27.0817
2019-03-31T01:33:48.429Z,26.9306
2019-03-31T01:35:52.415Z,27.0191
2019-03-31T01:37:56.428Z,27.0649
2019-03-31T01:40:00.411Z,26.9734
2019-03-31T01:42:04.419Z,27.0146
2019-03-31T01:44:08.410Z,27.0771
2019-03-31T01:46:12.407Z,26.9993
2019-03-31T01:48:16.418Z,27.1046
2019-03-31T01:50:20.404Z,27.1046
2019-03-31T01:52:24.425Z,27.0878
2019-03-31T01:54:28.434Z,27.0588
2019-03-31T01:56:32.419Z,27.2068
2019-03-31T01:58:36.415Z,27.2251
2019-03-31T02:00:40.420Z,27.1778
2019-03-31T02:02:44.400Z,27.1931
2019-03-31T02:04:48.435Z,27.1183
2019-03-31T02:06:59.805Z,27.3121
2019-03-31T02:09:03.430Z,27.2343
2019-03-31T02:11:07.452Z,27.2190
2019-03-31T02:13:11.428Z,27.1870
2019-03-31T02:17:57.479Z,27.2786
2019-03-31T02:17:57.479Z,27.2343
2019-03-31T02:20:01.408Z,27.3060
2019-03-31T02:22:05.419Z,27.3060
2019-03-31T02:24:09.394Z,27.2602
2019-03-31T02:26:13.409Z,27.2282
2019-03-31T02:28:17.400Z,27.2297
2019-03-31T02:30:21.400Z,27.3518
2019-03-31T02:32:25.421Z,27.4083
2019-03-31T02:34:29.405Z,27.4083
2019-03-31T02:36:33.433Z,27.3625
2019-03-31T02:38:37.407Z,27.2709
2019-03-31T02:40:41.429Z,27.2740
2019-03-31T02:42:45.443Z,27.3014
2019-03-31T02:44:49.406Z,27.2984
2019-03-31T02:46:53.409Z,27.2526
2019-03-31T02:48:57.417Z,27.2251
2019-03-31T02:51:01.444Z,27.2068
2019-03-31T02:53:05.402Z,27.2099
2019-03-31T02:55:09.446Z,27.1641
2019-03-31T02:57:13.411Z,27.1748
2019-03-31T02:59:17.416Z,27.1611
2019-03-31T03:01:21.463Z,27.1916
2019-03-31T03:03:25.441Z,27.2663
2019-03-31T03:05:29.415Z,27.2068
2019-03-31T03:07:33.409Z,27.1595
2019-03-31T03:09:37.412Z,27.2786
2019-03-31T03:11:41.404Z,27.2435
2019-03-31T03:13:45.458Z,27.2435
2019-03-31T03:15:49.408Z,27.3350
2019-03-31T03:17:53.418Z,27.2786
2019-03-31T03:19:57.415Z,27.2786
2019-03-31T03:22:01.421Z,27.2480
2019-03-31T03:24:05.439Z,27.1275
2019-03-31T03:26:09.397Z,27.2892
2019-03-31T03:28:13.447Z,27.2297
2019-03-31T03:30:17.599Z,27.2114
2019-03-31T03:32:21.403Z,27.1504
2019-03-31T03:34:25.457Z,27.2114
2019-03-31T03:36:29.403Z,27.1366
2019-03-31T03:38:33.426Z,27.1794
2019-03-31T03:40:37.421Z,27.1824
2019-03-31T03:42:41.409Z,27.1931
2019-03-31T03:44:45.415Z,27.1504
2019-03-31T03:46:49.417Z,27.2709
2019-03-31T03:48:53.488Z,27.1199
2019-03-31T03:50:57.409Z,27.1199
2019-03-31T03:53:01.414Z,27.1183
2019-03-31T03:55:05.410Z,27.1611
2019-03-31T03:57:09.424Z,27.1916
2019-03-31T03:59:13.418Z,27.1458
2019-03-31T04:01:17.415Z,27.1733
2019-03-31T04:03:30.234Z,27.1748
2019-03-31T04:05:30.407Z,27.0832
2019-03-31T04:07:34.423Z,27.2328
2019-03-31T04:09:38.410Z,27.2160
2019-03-31T04:11:42.482Z,27.1733
2019-03-31T04:13:46.445Z,27.1702
2019-03-31T04:15:50.435Z,27.2328
2019-03-31T04:17:54.414Z,27.2465
2019-03-31T04:19:58.460Z,27.1977
2019-03-31T04:22:02.469Z,27.2892
2019-03-31T04:24:06.410Z,27.1138
2019-03-31T04:26:10.499Z,27.2618
2019-03-31T04:28:15.335Z,27.2145
2019-03-31T04:30:19.477Z,27.3030
2019-03-31T04:32:23.418Z,27.2740
2019-03-31T04:34:27.404Z,27.3304
2019-03-31T04:36:31.442Z,27.2877
2019-03-31T04:38:35.398Z,27.3793
2019-03-31T04:40:39.405Z,27.2282
2019-03-31T04:42:43.426Z,27.3198
2019-03-31T04:44:47.438Z,27.2297
2019-03-31T04:46:51.437Z,27.2877
2019-03-31T04:48:55.415Z,27.2602
2019-03-31T04:50:59.399Z,27.3930
2019-03-31T04:53:03.408Z,27.3259
2019-03-31T04:55:07.416Z,27.2847
2019-03-31T04:57:11.467Z,27.3152
2019-03-31T04:59:15.397Z,27.3289
2019-03-31T05:01:19.442Z,27.3121
2019-03-31T05:03:23.410Z,27.2389
2019-03-31T05:05:27.442Z,27.2709
2019-03-31T05:07:31.441Z,27.2419
2019-03-31T05:09:35.427Z,27.1977
2019-03-31T05:11:39.417Z,27.2740
2019-03-31T05:13:43.452Z,27.1611
2019-03-31T05:15:47.408Z,27.2099
2019-03-31T05:17:51.421Z,27.0954
2019-03-31T05:19:55.420Z,27.1092
2019-03-31T05:21:59.407Z,27.1962
2019-03-31T05:24:03.433Z,27.1977
2019-03-31T05:26:07.434Z,27.1092
2019-03-31T05:28:11.414Z,27.0649
2019-03-31T05:30:15.425Z,27.0787
2019-03-31T05:32:19.415Z,27.0649
2019-03-31T05:34:23.430Z,26.9734
2019-03-31T05:36:27.425Z,27.0954
2019-03-31T05:38:31.426Z,27.0970
2019-03-31T05:40:35.459Z,27.0146
2019-03-31T05:42:39.426Z,26.9871
2019-03-31T05:44:43.420Z,27.0176
2019-03-31T05:46:47.504Z,26.9734
2019-03-31T05:48:51.412Z,27.0787
2019-03-31T05:50:55.531Z,26.9734
2019-03-31T05:52:59.392Z,26.9413
2019-03-31T05:55:03.488Z,26.9551
2019-03-31T05:57:07.464Z,26.9902
2019-03-31T05:59:11.442Z,26.9139
2019-03-31T06:01:15.429Z,26.8849
2019-03-31T06:03:19.430Z,26.9032
2019-03-31T06:05:23.438Z,26.8544
2019-03-31T06:07:27.415Z,26.9490
2019-03-31T06:09:31.414Z,26.8574
2019-03-31T06:11:36.385Z,26.9169
2019-03-31T06:13:40.484Z,27.0512
2019-03-31T06:15:44.532Z,27.0085
2019-03-31T06:17:48.471Z,26.9627
2019-03-31T06:19:52.398Z,26.9596
2019-03-31T06:21:56.435Z,27.0191
2019-03-31T06:24:00.393Z,27.0222
2019-03-31T06:26:04.448Z,27.0970
2019-03-31T06:28:08.518Z,26.9306
2019-03-31T06:30:12.459Z,26.9734
2019-03-31T06:32:17.384Z,26.9917
2019-03-31T06:34:21.415Z,27.0054
2019-03-31T06:36:25.513Z,26.9322
2019-03-31T06:38:29.506Z,26.9352
2019-03-31T06:40:33.570Z,26.9459
2019-03-31T06:42:38.388Z,26.9169
2019-03-31T06:44:42.409Z,27.0085
2019-03-31T06:46:46.956Z,27.0512
2019-03-31T06:48:50.423Z,26.9764
2019-03-31T06:50:54.431Z,26.9734
2019-03-31T06:52:58.256Z,27.0054
2019-03-31T06:55:02.235Z,26.9764
2019-03-31T06:57:06.346Z,26.9947
2019-03-31T06:59:10.266Z,27.1290
2019-03-31T07:01:14.261Z,27.1290
2019-03-31T07:03:18.249Z,27.1611
2019-03-31T07:05:22.256Z,27.2236
2019-03-31T07:07:26.315Z,27.1473
2019-03-31T07:09:30.294Z,27.1794
2019-03-31T07:11:34.287Z,27.1641
2019-03-31T07:13:38.300Z,27.1656
2019-03-31T07:15:42.335Z,27.2282
2019-03-31T07:17:46.260Z,27.1229
2019-03-31T07:19:50.302Z,27.1977
2019-03-31T07:21:54.251Z,27.2801
2019-03-31T07:23:58.277Z,27.2023
2019-03-31T07:26:02.259Z,27.3213
2019-03-31T07:28:06.297Z,27.2190
2019-03-31T07:30:10.333Z,27.3213
2019-03-31T07:32:14.286Z,27.3381
2019-03-31T07:34:18.241Z,27.4479
2019-03-31T07:36:22.248Z,27.3426
2019-03-31T07:38:38.261Z,27.4022
2019-03-31T07:40:35.394Z,27.3716
2019-03-31T07:42:39.247Z,27.2709
2019-03-31T07:44:43.250Z,27.4037
2019-03-31T07:46:47.254Z,27.4525
2019-03-31T07:48:51.923Z,27.3304
2019-03-31T07:50:55.339Z,27.2419
2019-03-31T07:52:59.284Z,27.3167
2019-03-31T07:55:03.344Z,27.4403
2019-03-31T07:57:07.328Z,27.3350
2019-03-31T07:59:11.307Z,27.3808
2019-03-31T08:01:15.376Z,27.3396
2019-03-31T08:03:19.323Z,27.3259
2019-03-31T08:05:33.002Z,27.2511
2019-03-31T08:07:32.259Z,27.3014
2019-03-31T08:09:36.449Z,27.2557
2019-03-31T08:11:40.530Z,27.2709
2019-03-31T08:13:44.921Z,27.3472
2019-03-31T08:15:48.396Z,27.4113
2019-03-31T08:17:52.358Z,27.3060
2019-03-31T08:19:56.396Z,27.3243
2019-03-31T08:22:00.381Z,27.3976
2019-03-31T08:24:06.626Z,27.3655
2019-03-31T08:26:10.298Z,27.3259
2019-03-31T08:28:14.392Z,27.4723
2019-03-31T08:30:18.315Z,27.3838
2019-03-31T08:32:22.308Z,27.4159
2019-03-31T08:34:26.257Z,27.5090
2019-03-31T08:36:30.794Z,27.5547
2019-03-31T08:38:34.318Z,27.5731
2019-03-31T08:40:38.270Z,27.6921
2019-03-31T08:42:42.330Z,27.8874
2019-03-31T08:44:46.395Z,27.8737
2019-03-31T08:46:50.291Z,27.8294
2019-03-31T08:48:54.371Z,27.9377
2019-03-31T08:50:59.021Z,27.8920
2019-03-31T08:53:03.876Z,28.0430
2019-03-31T08:55:15.525Z,28.0613
2019-03-31T08:57:19.266Z,28.1224
2019-03-31T08:59:23.256Z,28.1071
2019-03-31T09:01:27.268Z,28.0766
2019-03-31T09:03:31.262Z,28.0156
2019-03-31T09:05:35.249Z,28.1254
2019-03-31T09:07:41.879Z,28.2139
2019-03-31T09:09:46.268Z,28.1712
2019-03-31T09:11:50.250Z,28.1270
2019-03-31T09:13:54.261Z,28.1544
2019-03-31T09:15:58.265Z,28.2002
2019-03-31T09:18:02.267Z,28.1773
2019-03-31T09:20:06.262Z,28.1590
2019-03-31T09:22:10.250Z,28.1041
2019-03-31T09:24:14.267Z,28.1941
2019-03-31T09:26:18.267Z,27.9713
2019-03-31T09:28:22.252Z,28.1209
2019-03-31T09:30:26.274Z,27.9988
2019-03-31T09:32:30.259Z,28.0613
2019-03-31T09:34:34.268Z,27.9896
2019-03-31T09:36:38.251Z,28.0217
2019-03-31T09:38:42.255Z,27.9164
2019-03-31T09:40:46.274Z,28.0064
2019-03-31T09:42:50.258Z,27.8737
2019-03-31T09:44:54.266Z,27.8569
2019-03-31T09:46:58.245Z,27.9026
2019-03-31T09:49:02.267Z,27.7684
2019-03-31T09:51:06.257Z,27.8737
2019-03-31T09:53:10.261Z,27.7699
2019-03-31T09:55:14.277Z,27.7699
2019-03-31T09:57:18.256Z,27.7424
2019-03-31T09:59:22.330Z,27.6555
2019-03-31T10:01:26.259Z,27.6692
2019-03-31T10:03:30.252Z,27.6402
2019-03-31T10:05:34.275Z,27.6417
2019-03-31T10:07:38.248Z,27.6280
2019-03-31T10:09:42.255Z,27.5273
2019-03-31T10:11:46.266Z,27.4388
2019-03-31T10:13:50.263Z,27.4998
2019-03-31T10:15:54.267Z,27.6036
2019-03-31T10:17:58.279Z,27.5853
2019-03-31T10:20:02.256Z,27.5914
2019-03-31T10:22:06.272Z,27.5441
2019-03-31T10:24:10.264Z,27.4861
2019-03-31T10:26:16.101Z,27.5486
2019-03-31T10:28:23.276Z,27.5074
2019-03-31T10:30:27.250Z,27.6234
2019-03-31T10:32:31.276Z,27.5349
2019-03-31T10:34:35.254Z,27.5364
2019-03-31T10:36:44.870Z,27.4662
2019-03-31T10:38:48.316Z,27.5685
2019-03-31T10:40:52.251Z,27.5685
2019-03-31T10:42:56.259Z,27.5715
2019-03-31T10:45:00.432Z,27.5715
2019-03-31T10:47:04.259Z,27.5868
2019-03-31T10:49:08.259Z,27.6005
2019-03-31T10:51:12.273Z,27.6188
2019-03-31T10:53:16.265Z,27.5761
2019-03-31T10:55:20.263Z,27.6509
2019-03-31T10:57:24.263Z,27.7867
2019-03-31T10:59:28.256Z,27.7592
2019-03-31T11:01:32.269Z,27.7150
2019-03-31T11:03:36.275Z,27.7180
2019-03-31T11:05:40.262Z,27.7928
2019-03-31T11:07:44.282Z,27.7790
2019-03-31T11:09:48.336Z,27.7790
2019-03-31T11:11:52.263Z,27.8111
2019-03-31T11:13:56.282Z,27.7958
2019-03-31T11:16:00.268Z,27.9652
2019-03-31T11:18:04.263Z,27.9622
2019-03-31T11:20:08.248Z,27.8782
2019-03-31T11:22:12.259Z,27.9332
2019-03-31T11:24:16.274Z,28.0079
2019-03-31T11:26:20.274Z,27.9026
2019-03-31T11:28:24.270Z,27.9667
2019-03-31T11:30:28.258Z,27.9240
2019-03-31T11:32:32.260Z,27.9652
2019-03-31T11:34:36.280Z,27.9561
2019-03-31T11:36:40.261Z,27.9835
2019-03-31T11:38:44.279Z,27.9530
2019-03-31T11:40:48.262Z,27.9393
2019-03-31T11:42:52.277Z,27.9744
2019-03-31T11:44:56.256Z,28.0156
2019-03-31T11:47:00.292Z,28.0308
2019-03-31T11:49:04.266Z,27.8965
2019-03-31T11:51:08.276Z,27.9118
2019-03-31T11:53:12.266Z,27.9438
2019-03-31T11:55:16.269Z,27.9301
2019-03-31T11:57:20.296Z,27.9255
2019-03-31T11:59:24.285Z,27.9835
2019-03-31T12:01:28.278Z,27.9164
2019-03-31T12:03:32.266Z,27.9789
2019-03-31T12:05:36.259Z,27.9194
2019-03-31T12:07:46.869Z,27.9332
2019-03-31T12:09:49.280Z,27.9438
2019-03-31T12:11:53.272Z,27.9301
2019-03-31T12:13:57.278Z,27.7546
2019-03-31T12:16:01.267Z,27.7638
2019-03-31T12:18:05.250Z,27.6967
2019-03-31T12:20:09.257Z,27.6493
2019-03-31T12:22:13.267Z,27.7272
2019-03-31T12:24:17.254Z,27.6326
2019-03-31T12:26:21.265Z,27.8111
2019-03-31T12:28:25.262Z,27.6646
2019-03-31T12:30:29.278Z,27.3060
2019-03-31T12:32:33.265Z,27.4708
2019-03-31T12:34:37.269Z,27.1824
2019-03-31T12:36:41.278Z,26.4927
2019-03-31T12:38:45.253Z,27.3625
2019-03-31T12:40:49.253Z,27.2618
2019-03-31T12:42:53.273Z,27.3167
2019-03-31T12:44:57.255Z,27.2465
2019-03-31T12:47:01.276Z,26.0975
2019-03-31T12:49:05.261Z,27.1519
2019-03-31T12:51:09.276Z,27.1687
2019-03-31T12:53:13.263Z,27.1000
2019-03-31T12:55:17.301Z,26.9764
2019-03-31T12:57:21.262Z,27.0680
2019-03-31T12:59:27.297Z,27.1733
2019-03-31T13:01:31.268Z,26.8895
2019-03-31T13:03:35.269Z,27.0375
2019-03-31T13:05:39.250Z,27.0375
2019-03-31T13:07:55.633Z,27.0237
2019-03-31T13:09:52.248Z,26.2226
2019-03-31T13:11:56.246Z,27.0085
2019-03-31T13:14:00.263Z,26.7201
2019-03-31T13:16:04.250Z,26.1341
2019-03-31T13:18:08.270Z,25.9052
2019-03-31T13:20:12.242Z,26.7018
2019-03-31T13:22:16.254Z,26.8269
2019-03-31T13:24:20.258Z,26.8635
2019-03-31T13:26:24.271Z,26.9123
2019-03-31T13:28:28.272Z,26.9688
2019-03-31T13:30:32.276Z,26.8818
2019-03-31T13:32:36.271Z,26.8498
2019-03-31T13:34:40.249Z,26.7613
2019-03-31T13:36:44.256Z,26.8223
2019-03-31T13:38:48.283Z,26.7765
2019-03-31T13:40:52.266Z,26.8070
2019-03-31T13:42:56.256Z,26.7033
2019-03-31T13:45:00.377Z,26.7521
2019-03-31T13:47:04.270Z,26.6850
2019-03-31T13:49:08.280Z,26.6575
2019-03-31T13:51:12.258Z,26.5248
2019-03-31T13:53:16.582Z,26.6011
2019-03-31T13:55:20.268Z,26.1311
2019-03-31T13:57:24.457Z,26.6148
2019-03-31T13:59:28.268Z,26.4652
2019-03-31T14:01:32.253Z,26.5431
2019-03-31T14:03:36.256Z,26.5599
2019-03-31T14:05:40.262Z,26.3813
2019-03-31T14:07:44.272Z,26.3920
2019-03-31T14:09:48.290Z,26.4546
2019-03-31T14:11:52.258Z,26.1769
2019-03-31T14:13:56.318Z,26.1936
2019-03-31T14:16:00.268Z,26.1997
2019-03-31T14:18:04.263Z,26.3050
2019-03-31T14:20:08.296Z,26.1723
2019-03-31T14:22:12.275Z,26.1982
2019-03-31T14:24:16.252Z,26.0517
2019-03-31T14:26:20.259Z,26.0380
2019-03-31T14:28:24.258Z,26.1265
2019-03-31T14:30:28.265Z,26.1082
2019-03-31T14:32:32.247Z,26.1570
2019-03-31T14:34:36.261Z,25.9922
2019-03-31T14:36:40.259Z,25.9205
2019-03-31T14:38:44.257Z,25.9480
2019-03-31T14:40:48.256Z,25.9068
2019-03-31T14:42:52.268Z,25.8320
2019-03-31T14:44:56.259Z,25.9236
2019-03-31T14:47:00.249Z,25.8747
2019-03-31T14:49:04.250Z,25.8183
2019-03-31T14:51:08.257Z,25.6367
2019-03-31T14:53:12.262Z,25.7633
2019-03-31T14:55:16.268Z,25.8503
2019-03-31T14:57:20.250Z,25.7862
2019-03-31T14:59:24.256Z,25.5894
2019-03-31T15:01:28.358Z,25.6550
2019-03-31T15:03:32.257Z,25.6260
2019-03-31T15:05:36.243Z,25.6992
2019-03-31T15:07:40.269Z,25.6413
2019-03-31T15:09:44.249Z,25.5802
2019-03-31T15:11:48.250Z,25.4765
2019-03-31T15:13:52.286Z,25.4795
2019-03-31T15:15:56.257Z,25.2964
2019-03-31T15:18:00.264Z,25.3300
2019-03-31T15:20:04.274Z,25.3010
2019-03-31T15:22:08.253Z,25.2140
2019-03-31T15:24:12.264Z,25.1972
2019-03-31T15:26:16.268Z,25.2827
2019-03-31T15:28:20.253Z,25.2110
2019-03-31T15:30:24.260Z,25.0599
2019-03-31T15:32:28.265Z,25.0874
2019-03-31T15:34:32.275Z,25.0034
2019-03-31T15:36:36.255Z,25.0050
2019-03-31T15:38:40.288Z,24.9226
2019-03-31T15:40:44.263Z,24.7929
2019-03-31T15:42:48.263Z,24.8356
2019-03-31T15:44:52.254Z,24.7623
2019-03-31T15:46:56.264Z,24.8951
2019-03-31T15:49:00.256Z,24.7929
2019-03-31T15:51:04.263Z,24.7196
2019-03-31T15:53:08.261Z,24.6571
2019-03-31T15:55:12.262Z,24.6281
2019-03-31T15:57:16.266Z,24.6418
2019-03-31T15:59:20.262Z,24.5563
2019-03-31T16:01:24.277Z,24.4816
2019-03-31T16:03:28.267Z,24.5060
2019-03-31T16:05:32.255Z,24.3870
2019-03-31T16:07:36.264Z,24.5197
2019-03-31T16:09:40.275Z,24.4633
2019-03-31T16:11:53.720Z,24.5060
2019-03-31T16:13:53.268Z,24.4816
2019-03-31T16:15:57.259Z,24.4816
2019-03-31T16:18:01.261Z,24.4648
2019-03-31T16:20:05.252Z,24.4678
2019-03-31T16:22:09.259Z,24.4770
2019-03-31T16:24:13.279Z,24.3626
2019-03-31T16:26:17.263Z,24.3488
2019-03-31T16:28:21.262Z,24.4602
2019-03-31T16:30:25.268Z,24.4327
2019-03-31T16:32:29.265Z,24.3626
2019-03-31T16:34:33.261Z,24.3458
2019-03-31T16:36:37.250Z,24.3168
2019-03-31T16:38:41.255Z,24.2313
2019-03-31T16:40:45.256Z,24.2893
2019-03-31T16:42:49.255Z,24.2390
2019-03-31T16:44:58.376Z,24.1932
2019-03-31T16:47:02.279Z,24.2893
2019-03-31T16:49:06.301Z,24.0925
2019-03-31T16:51:10.251Z,23.9322
2019-03-31T16:53:14.253Z,24.0208
2019-03-31T16:55:18.254Z,23.9750
2019-03-31T16:57:22.266Z,24.0284
2019-03-31T16:59:26.347Z,23.9750
2019-03-31T17:01:30.276Z,24.0421
2019-03-31T17:03:34.252Z,23.9277
2019-03-31T17:05:38.263Z,24.0116
2019-03-31T17:07:42.264Z,24.1291
2019-03-31T17:09:51.773Z,23.9841
2019-03-31T17:11:55.297Z,24.1657
2019-03-31T17:13:59.252Z,24.1489
2019-03-31T17:16:03.248Z,23.9826
2019-03-31T17:18:07.261Z,24.1032
2019-03-31T17:20:11.249Z,23.9887
2019-03-31T17:22:15.283Z,24.0024
2019-03-31T17:24:19.248Z,23.7552
2019-03-31T17:26:23.267Z,23.8041
2019-03-31T17:28:27.257Z,23.2380
2019-03-31T17:30:31.268Z,23.4394
2019-03-31T17:32:35.336Z,23.4195
2019-03-31T17:34:39.273Z,23.1678
2019-03-31T17:36:43.258Z,23.1235
2019-03-31T17:38:47.267Z,23.2700
2019-03-31T17:40:51.247Z,23.2380
2019-03-31T17:42:55.284Z,23.1830
2019-03-31T17:44:59.265Z,23.2364
2019-03-31T17:47:03.269Z,22.9496
2019-03-31T17:49:07.283Z,22.5284
2019-03-31T17:51:11.258Z,23.2731
2019-03-31T17:53:15.261Z,23.7308
2019-03-31T17:55:19.266Z,23.4104
2019-03-31T17:57:23.271Z,23.8911
2019-03-31T17:59:27.260Z,24.1062
2019-03-31T18:01:31.262Z,23.5523
2019-03-31T18:03:35.295Z,23.5492
2019-03-31T18:05:39.254Z,24.1535
2019-03-31T18:07:43.269Z,23.3112
2019-03-31T18:09:47.249Z,24.2618
2019-03-31T18:11:51.263Z,23.4852
2019-03-31T18:13:55.266Z,23.8651
2019-03-31T18:15:59.266Z,23.8087
2019-03-31T18:18:03.265Z,22.9496
2019-03-31T18:20:07.275Z,23.4424
2019-03-31T18:22:16.682Z,24.0894
2019-03-31T18:24:20.260Z,23.3371
2019-03-31T18:26:24.270Z,23.2242
2019-03-31T18:28:28.263Z,23.7552
2019-03-31T18:30:32.265Z,23.7675
2019-03-31T18:32:36.252Z,23.4882
2019-03-31T18:34:40.255Z,23.6255
2019-03-31T18:36:44.253Z,23.2044
2019-03-31T18:38:48.263Z,23.0869
2019-03-31T18:40:52.268Z,23.3112
2019-03-31T18:42:56.269Z,22.9633
2019-03-31T18:45:00.393Z,22.8748
2019-03-31T18:47:04.251Z,23.5630
2019-03-31T18:49:08.267Z,23.0900
2019-03-31T18:51:12.264Z,22.9633
2019-03-31T18:53:16.273Z,23.0716
2019-03-31T18:55:20.261Z,23.0900
2019-03-31T18:57:24.261Z,23.2181
2019-03-31T18:59:28.275Z,23.8132
2019-03-31T19:01:32.264Z,24.4816
2019-03-31T19:03:36.273Z,24.6326
2019-03-31T19:05:40.270Z,24.5136
2019-03-31T19:07:44.277Z,24.5319
2019-03-31T19:09:48.248Z,24.2023
2019-03-31T19:11:52.276Z,24.6067
2019-03-31T19:13:56.314Z,24.4541
2019-03-31T19:16:00.273Z,24.5289
2019-03-31T19:18:04.368Z,24.6021
2019-03-31T19:20:08.265Z,24.4266
2019-03-31T19:22:12.296Z,24.5747
2019-03-31T19:24:16.267Z,24.4175
2019-03-31T19:26:20.272Z,24.4038
2019-03-31T19:28:24.256Z,23.9933
2019-03-31T19:30:28.269Z,24.3580
2019-03-31T19:32:32.307Z,24.1444
2019-03-31T19:34:36.300Z,23.8315
2019-03-31T19:36:40.254Z,23.9979
2019-03-31T19:38:44.261Z,23.9384
2019-03-31T19:40:48.250Z,24.3122
2019-03-31T19:42:52.284Z,24.1077
2019-03-31T19:44:56.266Z,23.9414
2019-03-31T19:47:00.272Z,23.8880
2019-03-31T19:49:04.288Z,23.9933
2019-03-31T19:51:08.264Z,23.8926
2019-03-31T19:53:12.267Z,24.0467
2019-03-31T19:55:16.270Z,23.8773
2019-03-31T19:57:20.281Z,23.8956
2019-03-31T19:59:24.266Z,23.5447
2019-03-31T20:01:28.275Z,23.9963
2019-03-31T20:03:32.277Z,23.7400
2019-03-31T20:05:36.266Z,23.6316
2019-03-31T20:07:40.282Z,23.8773
2019-03-31T20:09:44.268Z,23.8331
2019-03-31T20:11:48.256Z,24.0604
2019-03-31T20:13:52.251Z,23.8972
2019-03-31T20:15:56.286Z,23.6957
2019-03-31T20:18:00.258Z,23.8773
2019-03-31T20:20:04.287Z,23.9841
2019-03-31T20:22:08.267Z,23.8041
2019-03-31T20:24:12.265Z,24.0436
2019-03-31T20:26:16.272Z,23.9704
2019-03-31T20:28:20.275Z,23.9887
2019-03-31T20:30:24.270Z,24.0009
2019-03-31T20:32:28.282Z,24.1489
2019-03-31T20:34:32.267Z,23.8956
2019-03-31T20:36:36.270Z,23.8193
2019-03-31T20:38:40.270Z,23.8636
2019-03-31T20:40:44.281Z,24.0787
2019-03-31T20:42:48.270Z,23.8514
2019-03-31T20:44:52.257Z,24.0436
2019-03-31T20:46:56.272Z,23.8788
2019-03-31T20:49:00.255Z,24.0604
2019-03-31T20:51:04.274Z,23.9246
2019-03-31T20:53:08.281Z,23.9841
2019-03-31T20:55:16.499Z,23.9826
2019-03-31T20:57:20.260Z,24.1444
2019-03-31T20:59:24.269Z,24.0253
2019-03-31T21:01:28.263Z,24.1337
2019-03-31T21:03:32.268Z,24.1794
2019-03-31T21:05:36.270Z,24.2390
2019-03-31T21:07:40.280Z,24.2069
2019-03-31T21:09:45.449Z,24.2084
2019-03-31T21:11:49.282Z,24.4053
2019-03-31T21:13:56.652Z,24.4053
2019-03-31T21:16:01.276Z,24.2542
2019-03-31T21:18:05.256Z,24.1978
2019-03-31T21:20:09.261Z,24.0574
2019-03-31T21:22:13.267Z,24.1749
2019-03-31T21:24:17.254Z,24.2023
2019-03-31T21:26:21.258Z,24.3229
2019-03-31T21:28:25.272Z,24.3091
2019-03-31T21:30:29.261Z,24.4282
2019-03-31T21:32:33.269Z,24.1901
2019-03-31T21:34:37.275Z,24.3534
2019-03-31T21:36:41.254Z,24.3687
2019-03-31T21:38:45.310Z,24.0208
2019-03-31T21:40:49.270Z,24.2161
2019-03-31T21:42:53.262Z,24.1428
2019-03-31T21:44:57.271Z,24.2588
2019-03-31T21:47:01.262Z,24.5014
2019-03-31T21:49:05.269Z,24.3595
2019-03-31T21:51:09.258Z,24.4999
2019-03-31T21:53:13.265Z,24.5472
2019-03-31T21:55:17.267Z,24.5609
2019-03-31T21:57:21.269Z,24.0742
2019-03-31T21:59:25.278Z,24.1947
2019-03-31T22:01:29.264Z,24.3854
2019-03-31T22:03:33.268Z,24.5380
2019-03-31T22:05:37.267Z,24.6204
2019-03-31T22:07:41.278Z,24.4724
2019-03-31T22:09:45.262Z,24.5319
2019-03-31T22:11:49.268Z,24.5380
2019-03-31T22:13:53.272Z,24.6708
2019-03-31T22:15:57.281Z,24.6830
2019-03-31T22:18:01.256Z,24.5869
2019-03-31T22:20:05.266Z,24.7242
2019-03-31T22:22:09.283Z,24.7196
2019-03-31T22:24:13.264Z,24.7059
2019-03-31T22:26:19.655Z,24.6006
2019-03-31T22:28:24.259Z,24.5823
2019-03-31T22:30:28.270Z,24.7654
2019-03-31T22:32:32.280Z,24.9256
2019-03-31T22:34:36.256Z,24.9119
2019-03-31T22:36:40.254Z,24.9546
2019-03-31T22:38:44.272Z,24.8203
2019-03-31T22:40:48.257Z,24.8768
2019-03-31T22:42:52.246Z,24.8218
2019-03-31T22:44:56.278Z,24.8615
2019-03-31T22:47:00.250Z,24.8631
2019-03-31T22:49:04.254Z,24.9409
2019-03-31T22:51:08.263Z,25.0416
2019-03-31T22:53:12.267Z,24.9622
2019-03-31T22:55:16.275Z,24.9989
2019-03-31T22:57:20.252Z,24.9958
2019-03-31T22:59:24.266Z,24.9943
2019-03-31T23:01:28.271Z,24.9638
2019-03-31T23:03:32.261Z,24.8310
2019-03-31T23:05:36.264Z,24.9165
2019-03-31T23:07:40.278Z,25.0233
2019-03-31T23:09:44.248Z,24.9165
2019-03-31T23:11:48.250Z,25.0187
2019-03-31T23:13:52.255Z,24.9119
2019-03-31T23:15:56.290Z,24.7761
2019-03-31T23:18:00.285Z,24.8218
2019-03-31T23:20:04.266Z,24.5823
2019-03-31T23:22:08.257Z,24.6387
2019-03-31T23:24:12.267Z,24.8249
2019-03-31T23:26:16.298Z,24.8493
2019-03-31T23:28:20.253Z,24.7883
2019-03-31T23:30:24.258Z,24.7303
2019-03-31T23:32:28.261Z,24.7578
2019-03-31T23:34:32.272Z,24.6372
2019-03-31T23:36:36.286Z,24.5457
2019-03-31T23:38:40.270Z,24.6662
2019-03-31T23:40:44.310Z,24.7700
2019-03-31T23:42:48.267Z,24.7395
2019-03-31T23:44:52.254Z,24.8020
2019-03-31T23:46:56.251Z,24.8127
2019-03-31T23:49:00.264Z,24.8295
2019-03-31T23:51:04.274Z,24.8844
2019-03-31T23:53:15.941Z,24.7974
2019-03-31T23:55:19.264Z,24.8081
2019-03-31T23:57:23.310Z,24.7974
2019-03-31T23:59:27.258Z,24.8295
